sensor_id;sensor_type;location;lat;lon;timestamp;pressure;altitude;pressure_sealevel;temperature;humidity
16431;BME280;8325;49.284;7.238;2023-04-09T04:01:35;99442.38;;;3.55;100.00
16431;BME280;8325;49.284;7.238;2023-04-09T04:05:46;99449.09;;;3.44;100.00
16431;BME280;8325;49.284;7.238;2023-04-09T04:10:00;99448.84;;;3.36;100.00
16431;BME280;8325;49.284;7.238;2023-04-09T04:14:13;99438.94;;;3.30;100.00
16431;BME280;8325;49.284;7.238;2023-04-09T04:18:29;99446.78;;;3.16;100.00
16431;BME280;8325;49.284;7.238;2023-04-09T04:22:41;99456.09;;;3.18;100.00
16431;BME280;8325;49.284;7.238;2023-04-09T04:26:52;99456.69;;;3.22;100.00
16431;BME280;8325;49.284;7.238;2023-04-09T04:31:10;99462.47;;;3.13;100.00
16431;BME280;8325;49.284;7.238;2023-04-09T04:35:23;99449.38;;;3.16;100.00
16431;BME280;8325;49.284;7.238;2023-04-09T04:39:38;99458.75;;;3.17;100.00
16431;BME280;8325;49.284;7.238;2023-04-09T04:43:54;99457.94;;;3.16;100.00
16431;BME280;8325;49.284;7.238;2023-04-09T04:48:08;99460.63;;;3.15;100.00
16431;BME280;8325;49.284;7.238;2023-04-09T04:52:20;99459.38;;;3.08;100.00
16431;BME280;8325;49.284;7.238;2023-04-09T04:56:35;99471.06;;;3.00;100.00
16431;BME280;8325;49.284;7.238;2023-04-09T05:01:13;99460.94;;;2.97;100.00
16431;BME280;8325;49.284;7.238;2023-04-09T05:05:27;99467.88;;;2.97;100.00
16431;BME280;8325;49.284;7.238;2023-04-09T05:09:40;99467.25;;;2.93;100.00
16431;BME280;8325;49.284;7.238;2023-04-09T05:13:53;99472.00;;;2.99;100.00
16431;BME280;8325;49.284;7.238;2023-04-09T05:18:07;99479.00;;;2.97;100.00
16431;BME280;8325;49.284;7.238;2023-04-09T05:22:19;99472.81;;;3.00;100.00
16431;BME280;8325;49.284;7.238;2023-04-09T05:26:31;99481.91;;;3.06;100.00
16431;BME280;8325;49.284;7.238;2023-04-09T05:30:46;99484.91;;;2.99;100.00
16431;BME280;8325;49.284;7.238;2023-04-09T05:34:59;99492.44;;;3.03;100.00
16431;BME280;8325;49.284;7.238;2023-04-09T05:39:13;99484.38;;;2.94;100.00
16431;BME280;8325;49.284;7.238;2023-04-09T05:43:25;99489.31;;;2.97;100.00
16431;BME280;8325;49.284;7.238;2023-04-09T05:47:37;99478.19;;;2.97;100.00
16431;BME280;8325;49.284;7.238;2023-04-09T05:51:58;99479.22;;;2.94;100.00
16431;BME280;8325;49.284;7.238;2023-04-09T05:56:15;99483.75;;;3.04;100.00
16431;BME280;8325;49.284;7.238;2023-04-09T06:00:34;99483.13;;;3.00;100.00
16431;BME280;8325;49.284;7.238;2023-04-09T06:04:46;99483.47;;;3.71;100.00
16431;BME280;8325;49.284;7.238;2023-04-09T06:08:59;99482.56;;;3.96;100.00
16431;BME280;8325;49.284;7.238;2023-04-09T06:13:10;99481.84;;;4.18;100.00
16431;BME280;8325;49.284;7.238;2023-04-09T06:17:22;99476.25;;;4.24;100.00
16431;BME280;8325;49.284;7.238;2023-04-09T06:21:33;99485.38;;;3.92;100.00
16431;BME280;8325;49.284;7.238;2023-04-09T06:25:45;99488.59;;;3.83;100.00
16431;BME280;8325;49.284;7.238;2023-04-09T06:29:56;99485.25;;;3.70;100.00
16431;BME280;8325;49.284;7.238;2023-04-09T06:34:08;99486.56;;;3.76;100.00
16431;BME280;8325;49.284;7.238;2023-04-09T06:38:19;99486.59;;;6.60;94.21
16431;BME280;8325;49.284;7.238;2023-04-09T06:42:31;99479.63;;;11.25;72.25
16431;BME280;8325;49.284;7.238;2023-04-09T06:46:53;99471.50;;;13.82;59.83
16431;BME280;8325;49.284;7.238;2023-04-09T06:51:05;99476.31;;;15.23;54.13
16431;BME280;8325;49.284;7.238;2023-04-09T06:55:17;99478.47;;;15.79;51.64
16431;BME280;8325;49.284;7.238;2023-04-09T06:59:29;99485.47;;;14.98;52.97
16431;BME280;8325;49.284;7.238;2023-04-09T07:03:41;99477.50;;;14.22;56.05
16431;BME280;8325;49.284;7.238;2023-04-09T07:07:53;99479.94;;;13.13;59.72
16431;BME280;8325;49.284;7.238;2023-04-09T07:12:04;99485.22;;;12.24;63.76
16431;BME280;8325;49.284;7.238;2023-04-09T07:16:16;99498.25;;;11.22;67.48
16431;BME280;8325;49.284;7.238;2023-04-09T07:20:27;99495.69;;;10.78;69.63
16431;BME280;8325;49.284;7.238;2023-04-09T07:24:39;99497.09;;;10.73;70.32
16431;BME280;8325;49.284;7.238;2023-04-09T07:28:50;99495.53;;;10.62;71.50
16431;BME280;8325;49.284;7.238;2023-04-09T07:33:02;99492.59;;;10.11;72.94
16431;BME280;8325;49.284;7.238;2023-04-09T07:37:14;99494.78;;;10.16;73.92
16431;BME280;8325;49.284;7.238;2023-04-09T07:41:25;99491.03;;;10.01;75.78
16431;BME280;8325;49.284;7.238;2023-04-09T07:45:37;99489.28;;;9.74;74.76
16431;BME280;8325;49.284;7.238;2023-04-09T07:49:48;99490.19;;;10.46;74.60
16431;BME280;8325;49.284;7.238;2023-04-09T07:54:00;99494.50;;;10.19;75.07
16431;BME280;8325;49.284;7.238;2023-04-09T07:58:12;99492.34;;;10.32;74.15
16431;BME280;8325;49.284;7.238;2023-04-09T08:02:23;99487.81;;;10.34;73.25
16431;BME280;8325;49.284;7.238;2023-04-09T08:06:35;99491.59;;;10.58;74.78
16431;BME280;8325;49.284;7.238;2023-04-09T08:10:47;99488.53;;;10.45;74.20
16431;BME280;8325;49.284;7.238;2023-04-09T08:14:59;99493.41;;;10.12;75.69
16431;BME280;8325;49.284;7.238;2023-04-09T08:19:12;99497.47;;;9.79;78.10
16431;BME280;8325;49.284;7.238;2023-04-09T08:23:25;99487.31;;;10.21;76.68
16431;BME280;8325;49.284;7.238;2023-04-09T08:27:36;99490.91;;;10.20;76.56
16431;BME280;8325;49.284;7.238;2023-04-09T08:31:48;99484.81;;;10.29;76.62
16431;BME280;8325;49.284;7.238;2023-04-09T08:36:00;99496.53;;;10.43;75.75
16431;BME280;8325;49.284;7.238;2023-04-09T08:40:13;99496.81;;;10.22;76.72
16431;BME280;8325;49.284;7.238;2023-04-09T08:44:25;99492.25;;;10.24;76.55
16431;BME280;8325;49.284;7.238;2023-04-09T08:48:38;99495.63;;;10.52;76.41
16431;BME280;8325;49.284;7.238;2023-04-09T08:52:53;99491.16;;;10.63;74.85
16431;BME280;8325;49.284;7.238;2023-04-09T08:57:06;99495.91;;;10.67;73.72
16431;BME280;8325;49.284;7.238;2023-04-09T09:01:28;99493.06;;;10.78;72.48
16431;BME280;8325;49.284;7.238;2023-04-09T09:05:44;99496.78;;;10.76;72.17
16431;BME280;8325;49.284;7.238;2023-04-09T09:09:58;99498.16;;;11.06;72.78
16431;BME280;8325;49.284;7.238;2023-04-09T09:14:14;99491.88;;;11.25;71.13
16431;BME280;8325;49.284;7.238;2023-04-09T09:18:40;99489.09;;;11.26;70.61
16431;BME280;8325;49.284;7.238;2023-04-09T09:22:53;99480.19;;;11.37;71.14
16431;BME280;8325;49.284;7.238;2023-04-09T09:27:06;99475.81;;;11.46;67.11
16431;BME280;8325;49.284;7.238;2023-04-09T09:31:19;99472.63;;;11.68;68.52
16431;BME280;8325;49.284;7.238;2023-04-09T09:35:48;99460.34;;;12.19;64.36
16431;BME280;8325;49.284;7.238;2023-04-09T09:40:01;99466.91;;;12.24;56.99
16431;BME280;8325;49.284;7.238;2023-04-09T09:44:30;99459.97;;;12.06;57.86
16431;BME280;8325;49.284;7.238;2023-04-09T09:48:43;99454.13;;;12.45;57.28
16431;BME280;8325;49.284;7.238;2023-04-09T09:53:04;99448.56;;;12.48;56.04
16431;BME280;8325;49.284;7.238;2023-04-09T09:57:19;99448.41;;;12.41;55.02
16431;BME280;8325;49.284;7.238;2023-04-09T10:01:33;99443.31;;;12.64;54.60
16431;BME280;8325;49.284;7.238;2023-04-09T10:05:49;99452.13;;;12.96;55.36
16431;BME280;8325;49.284;7.238;2023-04-09T10:10:02;99442.97;;;12.84;51.54
16431;BME280;8325;49.284;7.238;2023-04-09T10:14:16;99451.13;;;12.97;52.53
16431;BME280;8325;49.284;7.238;2023-04-09T10:18:29;99462.50;;;12.57;49.60
16431;BME280;8325;49.284;7.238;2023-04-09T10:22:48;99447.09;;;12.54;51.13
16431;BME280;8325;49.284;7.238;2023-04-09T10:27:13;99443.00;;;12.59;51.00
16431;BME280;8325;49.284;7.238;2023-04-09T10:31:27;99434.31;;;12.34;48.39
16431;BME280;8325;49.284;7.238;2023-04-09T10:35:39;99430.69;;;12.68;51.43
16431;BME280;8325;49.284;7.238;2023-04-09T10:39:51;99433.88;;;13.27;50.80
16431;BME280;8325;49.284;7.238;2023-04-09T10:44:18;99426.97;;;13.66;47.08
16431;BME280;8325;49.284;7.238;2023-04-09T10:48:33;99434.81;;;13.97;47.11
16431;BME280;8325;49.284;7.238;2023-04-09T10:52:46;99432.63;;;13.86;45.99
16431;BME280;8325;49.284;7.238;2023-04-09T10:57:09;99439.69;;;14.08;46.55
16431;BME280;8325;49.284;7.238;2023-04-09T11:01:21;99419.66;;;14.30;46.80
16431;BME280;8325;49.284;7.238;2023-04-09T11:05:35;99409.50;;;14.65;48.81
16431;BME280;8325;49.284;7.238;2023-04-09T11:09:50;99410.56;;;14.93;46.51
16431;BME280;8325;49.284;7.238;2023-04-09T11:14:01;99414.44;;;15.12;47.06
16431;BME280;8325;49.284;7.238;2023-04-09T11:18:23;99416.47;;;14.58;43.84
16431;BME280;8325;49.284;7.238;2023-04-09T11:22:35;99414.50;;;14.60;47.21
16431;BME280;8325;49.284;7.238;2023-04-09T11:26:48;99413.03;;;14.57;44.19
16431;BME280;8325;49.284;7.238;2023-04-09T11:31:03;99413.06;;;14.72;45.41
16431;BME280;8325;49.284;7.238;2023-04-09T11:35:17;99403.88;;;14.68;45.40
16431;BME280;8325;49.284;7.238;2023-04-09T11:39:29;99408.63;;;15.02;44.81
16431;BME280;8325;49.284;7.238;2023-04-09T11:43:41;99407.00;;;15.16;43.75
16431;BME280;8325;49.284;7.238;2023-04-09T11:47:53;99408.31;;;15.41;43.93
16431;BME280;8325;49.284;7.238;2023-04-09T11:52:05;99392.25;;;15.51;43.97
16431;BME280;8325;49.284;7.238;2023-04-09T11:56:17;99388.31;;;15.62;43.55
16431;BME280;8325;49.284;7.238;2023-04-09T12:00:28;99383.53;;;15.00;41.04
16431;BME280;8325;49.284;7.238;2023-04-09T12:04:48;99401.44;;;14.52;42.07
16431;BME280;8325;49.284;7.238;2023-04-09T12:09:01;99388.06;;;14.38;43.22
16431;BME280;8325;49.284;7.238;2023-04-09T12:13:13;99390.19;;;14.20;43.04
16431;BME280;8325;49.284;7.238;2023-04-09T12:17:26;99395.97;;;13.92;43.69
16431;BME280;8325;49.284;7.238;2023-04-09T12:21:45;99389.06;;;14.14;44.92
16431;BME280;8325;49.284;7.238;2023-04-09T12:25:58;99387.38;;;14.59;44.71
16431;BME280;8325;49.284;7.238;2023-04-09T12:30:11;99385.31;;;14.69;41.92
16431;BME280;8325;49.284;7.238;2023-04-09T12:34:23;99394.75;;;14.64;41.53
16431;BME280;8325;49.284;7.238;2023-04-09T12:38:34;99389.47;;;15.08;43.28
16431;BME280;8325;49.284;7.238;2023-04-09T12:42:46;99389.38;;;15.31;41.05
16431;BME280;8325;49.284;7.238;2023-04-09T12:46:58;99372.63;;;15.54;41.34
16431;BME280;8325;49.284;7.238;2023-04-09T12:51:11;99371.06;;;15.74;42.16
16431;BME280;8325;49.284;7.238;2023-04-09T12:55:22;99366.94;;;15.35;40.94
16431;BME280;8325;49.284;7.238;2023-04-09T12:59:34;99359.84;;;15.36;40.88
16431;BME280;8325;49.284;7.238;2023-04-09T13:03:46;99377.25;;;15.01;40.65
16431;BME280;8325;49.284;7.238;2023-04-09T13:07:58;99362.00;;;15.11;40.47
16431;BME280;8325;49.284;7.238;2023-04-09T13:12:09;99367.91;;;15.13;40.15
16431;BME280;8325;49.284;7.238;2023-04-09T13:16:21;99360.94;;;14.90;41.12
16431;BME280;8325;49.284;7.238;2023-04-09T13:20:33;99372.34;;;15.27;40.71
16431;BME280;8325;49.284;7.238;2023-04-09T13:24:45;99353.28;;;15.25;40.73
16431;BME280;8325;49.284;7.238;2023-04-09T13:28:57;99360.38;;;15.10;40.19
16431;BME280;8325;49.284;7.238;2023-04-09T13:33:09;99345.38;;;15.25;40.72
16431;BME280;8325;49.284;7.238;2023-04-09T13:37:20;99346.13;;;15.55;42.82
16431;BME280;8325;49.284;7.238;2023-04-09T13:41:32;99329.25;;;15.50;41.91
16431;BME280;8325;49.284;7.238;2023-04-09T13:45:44;99337.81;;;15.37;41.87
16431;BME280;8325;49.284;7.238;2023-04-09T13:49:56;99331.88;;;15.13;42.26
16431;BME280;8325;49.284;7.238;2023-04-09T13:54:07;99327.50;;;15.20;40.97
16431;BME280;8325;49.284;7.238;2023-04-09T13:58:21;99325.44;;;15.52;41.97
16431;BME280;8325;49.284;7.238;2023-04-09T14:02:33;99328.19;;;15.29;41.21
16431;BME280;8325;49.284;7.238;2023-04-09T14:06:45;99322.84;;;15.37;40.77
16431;BME280;8325;49.284;7.238;2023-04-09T14:10:57;99307.50;;;15.62;41.32
16431;BME280;8325;49.284;7.238;2023-04-09T14:15:09;99340.00;;;15.33;41.86
16431;BME280;8325;49.284;7.238;2023-04-09T14:19:21;99337.44;;;14.74;41.85
16431;BME280;8325;49.284;7.238;2023-04-09T14:23:33;99337.78;;;14.71;42.76
16431;BME280;8325;49.284;7.238;2023-04-09T14:27:44;99338.97;;;14.98;43.28
16431;BME280;8325;49.284;7.238;2023-04-09T14:31:56;99321.69;;;15.25;43.70
16431;BME280;8325;49.284;7.238;2023-04-09T14:36:08;99329.94;;;15.58;42.75
16431;BME280;8325;49.284;7.238;2023-04-09T14:40:20;99327.75;;;15.62;41.25
16431;BME280;8325;49.284;7.238;2023-04-09T14:44:31;99340.78;;;14.98;41.67
16431;BME280;8325;49.284;7.238;2023-04-09T14:48:43;99331.28;;;14.67;43.57
16431;BME280;8325;49.284;7.238;2023-04-09T14:52:55;99332.97;;;14.74;44.03
16431;BME280;8325;49.284;7.238;2023-04-09T14:57:06;99336.53;;;14.67;43.45
16431;BME280;8325;49.284;7.238;2023-04-09T15:01:18;99322.09;;;14.78;44.50
16431;BME280;8325;49.284;7.238;2023-04-09T15:05:30;99321.00;;;14.87;42.97
16431;BME280;8325;49.284;7.238;2023-04-09T15:09:41;99310.59;;;14.79;42.68
16431;BME280;8325;49.284;7.238;2023-04-09T15:13:53;99305.97;;;14.81;43.25
16431;BME280;8325;49.284;7.238;2023-04-09T15:18:04;99309.34;;;14.60;42.96
16431;BME280;8325;49.284;7.238;2023-04-09T15:22:16;99304.25;;;14.73;44.33
16431;BME280;8325;49.284;7.238;2023-04-09T15:26:28;99291.09;;;14.58;43.44
16431;BME280;8325;49.284;7.238;2023-04-09T15:30:39;99300.59;;;14.44;42.68
16431;BME280;8325;49.284;7.238;2023-04-09T15:34:52;99306.06;;;14.58;43.70
16431;BME280;8325;49.284;7.238;2023-04-09T15:39:03;99298.47;;;14.63;43.22
16431;BME280;8325;49.284;7.238;2023-04-09T15:43:15;99304.44;;;14.57;43.39
16431;BME280;8325;49.284;7.238;2023-04-09T15:47:27;99298.84;;;14.37;43.19
16431;BME280;8325;49.284;7.238;2023-04-09T15:51:42;99299.13;;;14.27;43.65
16431;BME280;8325;49.284;7.238;2023-04-09T15:55:54;99299.56;;;14.16;43.64
16431;BME280;8325;49.284;7.238;2023-04-09T16:00:06;99312.59;;;14.09;43.61
16431;BME280;8325;49.284;7.238;2023-04-09T16:04:21;99316.31;;;14.15;43.19
16431;BME280;8325;49.284;7.238;2023-04-09T16:08:34;99312.94;;;14.06;42.81
16431;BME280;8325;49.284;7.238;2023-04-09T16:12:47;99315.53;;;13.91;42.26
16431;BME280;8325;49.284;7.238;2023-04-09T16:16:59;99320.06;;;13.97;43.62
16431;BME280;8325;49.284;7.238;2023-04-09T16:21:11;99307.69;;;14.06;43.38
16431;BME280;8325;49.284;7.238;2023-04-09T16:25:22;99324.44;;;13.67;43.52
16431;BME280;8325;49.284;7.238;2023-04-09T16:29:34;99313.78;;;13.61;44.35
16431;BME280;8325;49.284;7.238;2023-04-09T16:33:46;99310.75;;;13.72;44.48
16431;BME280;8325;49.284;7.238;2023-04-09T16:37:57;99315.53;;;13.68;43.97
16431;BME280;8325;49.284;7.238;2023-04-09T16:42:09;99317.75;;;13.56;43.69
16431;BME280;8325;49.284;7.238;2023-04-09T16:46:22;99319.56;;;13.56;44.64
16431;BME280;8325;49.284;7.238;2023-04-09T16:50:34;99320.25;;;13.73;44.11
16431;BME280;8325;49.284;7.238;2023-04-09T16:54:46;99313.72;;;13.69;44.37
16431;BME280;8325;49.284;7.238;2023-04-09T16:58:58;99312.50;;;13.56;43.99
16431;BME280;8325;49.284;7.238;2023-04-09T17:03:09;99318.34;;;13.44;43.60
16431;BME280;8325;49.284;7.238;2023-04-09T17:07:22;99320.16;;;13.43;43.80
16431;BME280;8325;49.284;7.238;2023-04-09T17:11:33;99313.47;;;13.32;43.85
16431;BME280;8325;49.284;7.238;2023-04-09T17:15:45;99322.16;;;13.33;44.90
16431;BME280;8325;49.284;7.238;2023-04-09T17:19:56;99316.63;;;13.28;44.99
16431;BME280;8325;49.284;7.238;2023-04-09T17:24:10;99316.31;;;13.14;44.37
16431;BME280;8325;49.284;7.238;2023-04-09T17:28:21;99316.97;;;13.17;45.40
16431;BME280;8325;49.284;7.238;2023-04-09T17:32:33;99314.41;;;13.08;45.31
16431;BME280;8325;49.284;7.238;2023-04-09T17:36:45;99306.59;;;12.92;45.58
16431;BME280;8325;49.284;7.238;2023-04-09T17:41:00;99310.06;;;12.84;44.99
16431;BME280;8325;49.284;7.238;2023-04-09T17:45:12;99314.88;;;12.73;45.98
16431;BME280;8325;49.284;7.238;2023-04-09T17:49:23;99317.84;;;12.61;46.04
16431;BME280;8325;49.284;7.238;2023-04-09T17:53:35;99303.47;;;12.49;46.46
16431;BME280;8325;49.284;7.238;2023-04-09T17:57:46;99311.03;;;12.36;46.89
16431;BME280;8325;49.284;7.238;2023-04-09T18:01:58;99302.88;;;12.23;47.87
16431;BME280;8325;49.284;7.238;2023-04-09T18:06:10;99306.63;;;12.12;47.29
16431;BME280;8325;49.284;7.238;2023-04-09T18:10:22;99301.41;;;11.95;47.74
16431;BME280;8325;49.284;7.238;2023-04-09T18:14:33;99305.03;;;11.86;48.77
16431;BME280;8325;49.284;7.238;2023-04-09T18:18:45;99312.00;;;11.69;50.90
16431;BME280;8325;49.284;7.238;2023-04-09T18:22:57;99313.13;;;11.50;51.35
16431;BME280;8325;49.284;7.238;2023-04-09T18:27:09;99316.88;;;11.40;53.19
16431;BME280;8325;49.284;7.238;2023-04-09T18:31:20;99315.16;;;11.14;54.32
16431;BME280;8325;49.284;7.238;2023-04-09T18:35:32;99322.81;;;10.99;54.23
16431;BME280;8325;49.284;7.238;2023-04-09T18:39:44;99334.66;;;10.86;54.13
16431;BME280;8325;49.284;7.238;2023-04-09T18:43:56;99341.44;;;10.70;55.16
16431;BME280;8325;49.284;7.238;2023-04-09T18:48:08;99344.84;;;10.63;56.22
16431;BME280;8325;49.284;7.238;2023-04-09T18:52:19;99350.34;;;10.33;59.24
16431;BME280;8325;49.284;7.238;2023-04-09T18:56:31;99347.84;;;10.06;61.76
16431;BME280;8325;49.284;7.238;2023-04-09T19:00:43;99348.38;;;9.91;62.41
16431;BME280;8325;49.284;7.238;2023-04-09T19:04:54;99347.28;;;9.76;63.36
16431;BME280;8325;49.284;7.238;2023-04-09T19:09:06;99339.88;;;9.72;64.74
16431;BME280;8325;49.284;7.238;2023-04-09T19:13:18;99339.97;;;9.62;65.31
16431;BME280;8325;49.284;7.238;2023-04-09T19:17:29;99348.97;;;9.50;66.25
16431;BME280;8325;49.284;7.238;2023-04-09T19:21:41;99346.25;;;9.41;66.51
16431;BME280;8325;49.284;7.238;2023-04-09T19:25:54;99344.06;;;9.19;67.20
16431;BME280;8325;49.284;7.238;2023-04-09T19:30:06;99343.84;;;9.12;68.18
16431;BME280;8325;49.284;7.238;2023-04-09T19:34:18;99346.38;;;8.94;68.88
16431;BME280;8325;49.284;7.238;2023-04-09T19:38:29;99341.34;;;8.83;68.89
16431;BME280;8325;49.284;7.238;2023-04-09T19:42:41;99355.78;;;8.68;69.05
16431;BME280;8325;49.284;7.238;2023-04-09T19:46:52;99353.94;;;8.50;69.41
16431;BME280;8325;49.284;7.238;2023-04-09T19:51:04;99349.00;;;8.47;69.42
16431;BME280;8325;49.284;7.238;2023-04-09T19:55:16;99349.56;;;8.41;70.47
16431;BME280;8325;49.284;7.238;2023-04-09T19:59:28;99341.59;;;8.33;70.25
16431;BME280;8325;49.284;7.238;2023-04-09T20:03:40;99330.41;;;8.13;71.47
16431;BME280;8325;49.284;7.238;2023-04-09T20:07:51;99327.16;;;8.01;71.52
16431;BME280;8325;49.284;7.238;2023-04-09T20:12:03;99333.44;;;7.89;72.37
16431;BME280;8325;49.284;7.238;2023-04-09T20:16:17;99329.88;;;7.80;72.92
16431;BME280;8325;49.284;7.238;2023-04-09T20:20:28;99321.38;;;7.69;73.12
16431;BME280;8325;49.284;7.238;2023-04-09T20:24:40;99325.22;;;7.55;74.47
16431;BME280;8325;49.284;7.238;2023-04-09T20:28:53;99316.19;;;7.49;73.35
16431;BME280;8325;49.284;7.238;2023-04-09T20:33:05;99323.28;;;7.47;73.76
16431;BME280;8325;49.284;7.238;2023-04-09T20:37:16;99327.94;;;7.34;74.49
16431;BME280;8325;49.284;7.238;2023-04-09T20:41:28;99337.22;;;7.27;74.69
16431;BME280;8325;49.284;7.238;2023-04-09T20:45:40;99343.34;;;7.26;75.08
16431;BME280;8325;49.284;7.238;2023-04-09T20:49:51;99334.00;;;7.04;76.20
16431;BME280;8325;49.284;7.238;2023-04-09T20:54:03;99328.97;;;7.02;76.52
16431;BME280;8325;49.284;7.238;2023-04-09T20:58:15;99325.22;;;6.95;77.29
16431;BME280;8325;49.284;7.238;2023-04-09T21:02:26;99324.38;;;6.85;77.53
16431;BME280;8325;49.284;7.238;2023-04-09T21:06:38;99330.28;;;6.87;77.84
16431;BME280;8325;49.284;7.238;2023-04-09T21:10:50;99331.06;;;6.78;78.29
16431;BME280;8325;49.284;7.238;2023-04-09T21:15:02;99329.09;;;6.70;77.80
16431;BME280;8325;49.284;7.238;2023-04-09T21:19:13;99338.06;;;6.56;77.60
16431;BME280;8325;49.284;7.238;2023-04-09T21:23:25;99327.50;;;6.48;78.18
16431;BME280;8325;49.284;7.238;2023-04-09T21:27:37;99321.81;;;6.33;78.37
